Time;durP1;ratioP1;P1;durP2;ratioP2;P2;SDS_P1;SDS_P2;PMS_P1;PMS_P2;Temp;Humidity;BMP_temperature;BMP_pressure;BME280_temperature;BME280_humidity;BME280_pressure;Samples;Min_cycle;Max_cycle;Signal;HPM_P1;HPM_P2
2023/07/30 00:00:43;;;;;;;;;2.00;2.00;;;;;18.46;72.58;100808.66;5009491;28;9527;-68
2023/07/30 00:03:09;;;;;;;;;4.00;2.75;;;;;18.45;72.83;100794.22;5010668;28;8843;-68
2023/07/30 00:05:36;;;;;;;;;2.00;2.00;;;;;18.45;73.35;100791.47;5010312;28;8845;-68
2023/07/30 00:08:03;;;;;;;;;3.75;2.25;;;;;18.43;73.09;100804.53;5011006;28;8834;-67
2023/07/30 00:10:29;;;;;;;;;5.00;4.75;;;;;18.41;73.25;100800.41;5010958;28;8847;-66
2023/07/30 00:12:56;;;;;;;;;3.00;2.00;;;;;18.41;73.33;100811.31;4989513;28;8843;-68
2023/07/30 00:15:23;;;;;;;;;2.00;2.00;;;;;18.40;73.31;100806.94;5011477;28;8893;-69
2023/07/30 00:17:49;;;;;;;;;3.00;2.00;;;;;18.36;73.57;100801.16;5011213;28;8819;-68
2023/07/30 00:20:16;;;;;;;;;3.00;2.00;;;;;18.37;73.44;100807.44;5009333;28;8958;-69
2023/07/30 00:22:42;;;;;;;;;2.00;2.00;;;;;18.38;73.76;100801.72;5003628;28;8849;-68
2023/07/30 00:25:08;;;;;;;;;3.75;3.75;;;;;18.40;73.48;100807.75;4998984;28;8837;-67
2023/07/30 00:27:35;;;;;;;;;3.75;1.50;;;;;18.40;73.52;100810.47;5007106;28;8853;-68
2023/07/30 00:30:02;;;;;;;;;3.50;2.00;;;;;18.40;73.48;100805.03;5010436;28;9624;-68
2023/07/30 00:32:28;;;;;;;;;5.00;3.75;;;;;18.38;73.35;100812.63;4992276;28;8839;-68
2023/07/30 00:34:55;;;;;;;;;4.25;3.00;;;;;18.36;73.75;100812.06;4992813;28;8922;-68
2023/07/30 00:37:21;;;;;;;;;3.00;2.00;;;;;18.36;73.74;100806.59;4983133;28;8859;-68
2023/07/30 00:39:49;;;;;;;;;3.50;1.75;;;;;18.37;73.63;100808.25;4991945;28;8823;-68
2023/07/30 00:42:15;;;;;;;;;1.50;1.00;;;;;18.36;73.91;100803.88;4987167;28;8837;-68
2023/07/30 00:44:42;;;;;;;;;3.50;3.50;;;;;18.35;73.96;100813.13;4991981;28;8864;-69
2023/07/30 00:47:08;;;;;;;;;3.00;2.00;;;;;18.35;74.07;100813.13;4992949;28;8832;-68
2023/07/30 00:49:36;;;;;;;;;4.25;2.75;;;;;18.37;74.03;100808.25;5008730;28;8823;-68
2023/07/30 00:52:03;;;;;;;;;2.25;1.75;;;;;18.40;74.09;100813.22;4991178;28;8831;-66
2023/07/30 00:54:30;;;;;;;;;3.00;2.25;;;;;18.37;73.93;100812.88;5009599;28;8860;-67
2023/07/30 00:56:57;;;;;;;;;6.25;3.00;;;;;18.36;74.07;100819.41;5006008;28;8941;-68
2023/07/30 00:59:23;;;;;;;;;2.00;1.75;;;;;18.31;74.32;100811.13;4994245;28;8851;-68
2023/07/30 01:01:52;;;;;;;;;5.00;3.50;;;;;18.29;74.47;100817.66;4996587;28;8856;-67
2023/07/30 01:04:18;;;;;;;;;4.00;3.00;;;;;18.29;74.49;100822.28;5009855;28;8824;-68
2023/07/30 01:06:46;;;;;;;;;3.00;3.00;;;;;18.32;74.50;100815.53;5003443;28;8848;-68
2023/07/30 01:09:12;;;;;;;;;2.00;2.00;;;;;18.34;74.50;100814.19;5004676;28;9611;-68
2023/07/30 01:11:41;;;;;;;;;2.25;2.25;;;;;18.34;74.62;100814.19;4990840;28;8945;-68
2023/07/30 01:14:09;;;;;;;;;1.00;1.00;;;;;18.36;74.36;100817.50;4983134;28;8847;-68
2023/07/30 01:16:36;;;;;;;;;1.50;1.50;;;;;18.35;74.52;100821.31;4990187;28;9679;-68
2023/07/30 01:19:04;;;;;;;;;3.75;2.50;;;;;18.37;74.55;100821.06;5006800;28;8847;-69
2023/07/30 01:21:34;;;;;;;;;1.00;1.00;;;;;18.37;74.39;100823.78;5007586;28;8854;-69
2023/07/30 01:24:02;;;;;;;;;2.00;1.00;;;;;18.37;74.65;100826.50;5008390;28;8864;-68
2023/07/30 01:26:49;;;;;;;;;1.75;1.75;;;;;18.37;74.84;100821.06;4991907;28;8926;-68
2023/07/30 01:29:27;;;;;;;;;1.25;1.25;;;;;18.40;74.68;100831.47;5004800;28;8900;-68
2023/07/30 01:32:04;;;;;;;;;2.25;2.25;;;;;18.40;74.85;100826.00;5008016;28;8869;-67
2023/07/30 01:34:35;;;;;;;;;2.50;2.50;;;;;18.42;74.77;100830.13;4994272;28;8980;-67
2023/07/30 01:37:02;;;;;;;;;2.25;1.00;;;;;18.39;74.79;100829.78;5009723;28;8859;-68
2023/07/30 01:39:30;;;;;;;;;4.25;3.00;;;;;18.37;74.77;100831.94;5003741;28;8844;-67
2023/07/30 01:41:57;;;;;;;;;2.25;2.00;;;;;18.37;75.02;100830.06;5001548;28;8848;-67
2023/07/30 01:44:24;;;;;;;;;1.75;1.75;;;;;18.36;75.13;100824.84;5006099;28;8845;-67
2023/07/30 01:46:50;;;;;;;;;2.25;2.25;;;;;18.35;75.26;100829.47;4991033;28;8865;-68
2023/07/30 01:49:17;;;;;;;;;3.00;2.50;;;;;18.35;75.49;100828.63;5007907;28;8968;-67
2023/07/30 01:51:43;;;;;;;;;2.50;2.50;;;;;18.36;75.49;100824.84;5007865;28;9757;-66
2023/07/30 01:54:10;;;;;;;;;2.25;2.00;;;;;18.35;75.36;100825.91;4974607;28;8847;-67
2023/07/30 01:56:36;;;;;;;;;4.00;2.00;;;;;18.34;75.47;100832.44;5007326;28;8823;-66
2023/07/30 01:59:03;;;;;;;;;2.00;1.75;;;;;18.33;75.84;100831.63;5002464;28;8861;-67
2023/07/30 02:01:29;;;;;;;;;1.75;1.25;;;;;18.35;75.95;100831.34;4999030;28;8862;-66
2023/07/30 02:03:56;;;;;;;;;4.50;1.50;;;;;18.36;75.87;100830.31;4992347;28;8969;-67
2023/07/30 02:06:23;;;;;;;;;2.25;2.25;;;;;18.35;75.76;100834.09;4990015;28;8982;-67
2023/07/30 02:08:49;;;;;;;;;1.00;1.00;;;;;18.36;75.97;100822.94;4992596;28;8886;-67
2023/07/30 02:11:16;;;;;;;;;2.25;2.25;;;;;18.34;75.99;100827.81;5006442;28;8820;-67
2023/07/30 02:13:42;;;;;;;;;3.25;1.00;;;;;18.35;76.10;100834.09;4976200;28;8909;-67
2023/07/30 02:16:09;;;;;;;;;1.75;1.75;;;;;18.36;76.18;100830.31;4990132;28;8926;-67
2023/07/30 02:18:35;;;;;;;;;2.00;2.00;;;;;18.33;76.02;100833.50;4975610;28;8865;-67
2023/07/30 02:21:02;;;;;;;;;1.00;1.00;;;;;18.31;76.28;100833.78;4991425;28;8856;-67
2023/07/30 02:23:29;;;;;;;;;5.25;2.75;;;;;18.29;76.42;100833.19;5013503;23;8873;-68
2023/07/30 02:25:55;;;;;;;;;2.50;2.00;;;;;18.28;76.55;100840.53;5009009;28;9624;-68
2023/07/30 02:28:22;;;;;;;;;2.00;2.00;;;;;18.26;76.71;100831.75;5003821;28;8846;-68
2023/07/30 02:30:48;;;;;;;;;7.25;4.00;;;;;18.26;76.81;100828.22;4990058;28;8872;-68
2023/07/30 02:33:15;;;;;;;;;2.00;2.00;;;;;18.26;76.88;100826.31;4991174;28;8853;-68
2023/07/30 02:35:43;;;;;;;;;1.75;1.00;;;;;18.27;76.75;100827.13;4991596;28;8915;-68
2023/07/30 02:38:10;;;;;;;;;3.75;1.75;;;;;18.28;76.59;100823.34;5007773;28;8907;-68
2023/07/30 02:40:36;;;;;;;;;4.75;2.25;;;;;18.29;76.87;100822.28;4988084;28;8834;-68
2023/07/30 02:43:03;;;;;;;;;2.00;1.75;;;;;18.29;76.72;100820.38;5004652;28;8843;-68
2023/07/30 02:45:30;;;;;;;;;2.00;2.00;;;;;18.30;76.83;100823.91;4986570;28;9510;-68
2023/07/30 02:47:56;;;;;;;;;2.25;2.25;;;;;18.27;76.63;100819.81;4989213;28;8963;-68
2023/07/30 02:50:23;;;;;;;;;5.00;3.50;;;;;18.26;76.91;100820.84;4988124;28;8919;-68
2023/07/30 02:52:49;;;;;;;;;1.75;1.75;;;;;18.26;77.10;100815.41;4990407;28;8832;-68
2023/07/30 02:55:16;;;;;;;;;2.00;2.00;;;;;18.25;77.21;100815.66;5005771;28;9599;-68
2023/07/30 02:57:42;;;;;;;;;1.75;1.00;;;;;18.26;76.94;100820.84;4990245;28;8950;-68
2023/07/30 03:00:09;;;;;;;;;1.50;1.50;;;;;18.27;77.00;100817.09;4991062;28;9538;-68
2023/07/30 03:02:35;;;;;;;;;3.50;1.25;;;;;18.28;77.08;100817.91;5005839;28;8991;-68
2023/07/30 03:05:02;;;;;;;;;2.50;2.50;;;;;18.25;77.29;100813.75;4995497;28;8841;-68
2023/07/30 03:07:30;;;;;;;;;2.00;1.00;;;;;18.26;77.16;100815.41;4990928;28;8856;-68
2023/07/30 03:09:57;;;;;;;;;1.25;1.25;;;;;18.26;77.21;100817.31;4992921;28;8814;-68
2023/07/30 03:12:23;;;;;;;;;1.75;1.75;;;;;18.25;77.32;100813.75;4992903;28;9004;-68
2023/07/30 03:14:50;;;;;;;;;1.00;1.00;;;;;18.25;77.27;100815.66;4990753;28;8850;-70
2023/07/30 03:17:17;;;;;;;;;1.00;1.00;;;;;18.25;77.66;100816.50;4994571;28;8862;-69
2023/07/30 03:19:43;;;;;;;;;1.00;1.00;;;;;18.24;77.40;100820.28;4990443;28;8951;-69
2023/07/30 03:22:10;;;;;;;;;1.25;1.00;;;;;18.25;77.51;100811.03;4993539;28;8867;-70
2023/07/30 03:24:36;;;;;;;;;2.50;2.50;;;;;18.23;77.40;100817.78;4986851;28;8868;-69
2023/07/30 03:27:03;;;;;;;;;2.00;2.00;;;;;18.24;77.57;100822.19;4989800;28;8862;-70
2023/07/30 03:29:30;;;;;;;;;1.50;0.75;;;;;18.24;77.40;100823.03;4991351;28;8857;-69
2023/07/30 03:31:56;;;;;;;;;1.00;0.75;;;;;18.24;77.22;100817.56;5004312;28;8854;-69
2023/07/30 03:34:23;;;;;;;;;1.50;1.50;;;;;18.23;77.40;100826.81;5008221;28;8849;-70
2023/07/30 03:36:49;;;;;;;;;1.00;1.00;;;;;18.25;77.52;100832.00;4995853;28;8852;-69
2023/07/30 03:39:16;;;;;;;;;1.50;1.50;;;;;18.22;77.35;100830.59;4997295;28;8850;-70
2023/07/30 03:41:43;;;;;;;;;3.75;1.25;;;;;18.21;77.31;100834.41;4983385;28;8950;-69
2023/07/30 03:44:11;;;;;;;;;3.25;1.00;;;;;18.20;77.08;100838.19;4990154;28;8845;-68
2023/07/30 03:46:38;;;;;;;;;1.00;1.00;;;;;18.19;77.16;100831.09;4993702;28;8841;-68
2023/07/30 03:49:04;;;;;;;;;6.00;4.25;;;;;18.19;76.78;100833.84;4996112;28;8843;-68
2023/07/30 03:51:31;;;;;;;;;1.50;1.50;;;;;18.18;76.47;100837.59;5004972;28;8863;-69
2023/07/30 03:53:58;;;;;;;;;2.00;0.25;;;;;18.16;76.35;100831.59;4990140;28;8976;-69
2023/07/30 03:56:25;;;;;;;;;1.00;0.50;;;;;18.15;75.53;100835.41;4987993;28;8853;-70
2023/07/30 03:58:53;;;;;;;;;2.00;0.00;;;;;18.13;74.68;100832.06;4989071;28;8908;-70
2023/07/30 04:01:20;;;;;;;;;1.25;1.25;;;;;18.11;73.68;100836.09;5004151;28;8890;-69
2023/07/30 04:03:47;;;;;;;;;2.00;1.50;;;;;18.08;72.42;100840.16;5001918;28;8862;-69
2023/07/30 04:06:13;;;;;;;;;0.00;0.00;;;;;18.09;71.74;100835.53;4993574;28;8846;-70
2023/07/30 04:08:40;;;;;;;;;1.00;1.00;;;;;18.09;70.73;100839.06;4988057;28;8837;-69
2023/07/30 04:11:06;;;;;;;;;0.00;0.00;;;;;18.08;69.56;100837.44;4988666;28;8882;-70
2023/07/30 04:13:34;;;;;;;;;1.00;1.00;;;;;18.05;69.39;100835.19;4989310;28;8866;-69
2023/07/30 04:16:00;;;;;;;;;0.75;0.00;;;;;18.04;68.83;100844.44;4988862;28;9766;-69
2023/07/30 04:18:27;;;;;;;;;1.00;1.00;;;;;18.05;68.23;100843.34;4983563;28;8923;-69
2023/07/30 04:20:55;;;;;;;;;1.25;1.25;;;;;18.03;67.19;100845.53;5000310;28;8853;-69
2023/07/30 04:23:22;;;;;;;;;1.25;1.25;;;;;18.07;67.69;100837.66;4989170;28;8857;-69
2023/07/30 04:25:50;;;;;;;;;0.25;0.25;;;;;18.09;67.18;100840.97;4988764;28;8849;-69
2023/07/30 04:28:16;;;;;;;;;0.50;0.50;;;;;18.09;66.69;100839.06;4986688;28;8959;-69
2023/07/30 04:30:46;;;;;;;;;0.00;0.00;;;;;18.14;66.61;100841.88;4980896;28;8939;-69
2023/07/30 04:33:14;;;;;;;;;1.00;1.00;;;;;18.16;66.44;100841.66;5003687;28;8834;-69
2023/07/30 04:35:41;;;;;;;;;0.50;0.50;;;;;18.16;65.78;100847.94;4988768;28;8880;-69
2023/07/30 04:38:08;;;;;;;;;3.00;1.00;;;;;18.14;65.57;100846.50;4988789;28;9622;-70
2023/07/30 04:40:34;;;;;;;;;0.75;0.75;;;;;18.12;65.86;100840.50;5003850;28;8830;-69
2023/07/30 04:43:01;;;;;;;;;0.75;0.00;;;;;18.12;65.82;100841.31;4988601;28;8826;-69
2023/07/30 04:45:28;;;;;;;;;0.00;0.00;;;;;18.15;66.15;100850.88;5004719;28;8843;-70
2023/07/30 04:47:56;;;;;;;;;1.25;1.25;;;;;18.12;65.86;100844.03;4987636;28;8857;-69
2023/07/30 04:50:22;;;;;;;;;0.25;0.25;;;;;18.13;65.45;100842.97;4986981;28;8916;-70
2023/07/30 04:52:49;;;;;;;;;1.00;0.75;;;;;18.14;65.47;100844.63;4988135;28;8834;-70
2023/07/30 04:55:15;;;;;;;;;0.00;0.00;;;;;18.12;65.25;100840.50;4976903;28;8878;-70
2023/07/30 04:57:42;;;;;;;;;0.25;0.25;;;;;18.10;64.79;100842.63;4986238;28;8901;-70
2023/07/30 05:00:09;;;;;;;;;0.75;0.75;;;;;18.03;64.01;100843.63;4989568;28;8975;-69
2023/07/30 05:02:36;;;;;;;;;0.00;0.00;;;;;18.01;63.98;100843.03;4983575;28;8875;-69
2023/07/30 05:05:02;;;;;;;;;0.50;0.50;;;;;18.01;63.73;100850.38;4989821;28;8851;-69
2023/07/30 05:07:29;;;;;;;;;0.00;0.00;;;;;18.03;63.84;100857.25;4985709;28;8840;-69
2023/07/30 05:09:55;;;;;;;;;0.00;0.00;;;;;18.08;63.64;100855.69;4983791;28;8850;-69
2023/07/30 05:12:22;;;;;;;;;1.50;0.50;;;;;18.08;63.65;100859.22;4984682;28;9646;-69
2023/07/30 05:14:48;;;;;;;;;1.25;0.75;;;;;18.08;63.22;100858.41;4988182;28;8862;-69
2023/07/30 05:17:15;;;;;;;;;0.25;0.25;;;;;18.07;63.21;100862.19;4987411;28;8900;-69
2023/07/30 05:19:41;;;;;;;;;0.00;0.00;;;;;18.06;63.27;100863.25;4986084;28;8860;-69
2023/07/30 05:22:09;;;;;;;;;1.00;0.75;;;;;18.07;63.67;100859.44;4987714;28;8835;-69
2023/07/30 05:24:36;;;;;;;;;0.00;0.00;;;;;18.10;63.44;100858.97;4982015;28;8849;-69
2023/07/30 05:27:03;;;;;;;;;0.25;0.25;;;;;18.08;63.77;100864.69;4989352;28;9523;-69
2023/07/30 05:29:30;;;;;;;;;0.00;0.00;;;;;18.10;63.62;100864.41;4986323;28;8824;-70
2023/07/30 05:31:57;;;;;;;;;0.00;0.00;;;;;18.09;63.42;100860.06;4987585;28;8837;-69
2023/07/30 05:34:23;;;;;;;;;0.00;0.00;;;;;18.07;63.62;100859.44;4984874;28;8844;-70
2023/07/30 05:36:50;;;;;;;;;0.00;0.00;;;;;18.11;63.71;100858.75;4986540;28;8837;-69
2023/07/30 05:39:16;;;;;;;;;0.25;0.25;;;;;18.12;64.11;100856.84;4988511;28;8865;-69
2023/07/30 05:41:43;;;;;;;;;0.00;0.00;;;;;18.12;64.28;100859.56;4986626;28;8878;-70
2023/07/30 05:44:09;;;;;;;;;0.50;0.50;;;;;18.12;64.08;100859.56;4992062;28;8882;-69
2023/07/30 05:46:36;;;;;;;;;1.00;0.50;;;;;18.12;64.24;100856.84;4978225;28;8862;-69
2023/07/30 05:49:02;;;;;;;;;3.00;2.25;;;;;18.14;64.04;100866.41;4988043;28;9587;-70
2023/07/30 05:51:29;;;;;;;;;0.50;0.00;;;;;18.15;64.40;100859.06;4985183;28;8830;-69
2023/07/30 05:53:55;;;;;;;;;2.50;1.75;;;;;18.13;64.61;100861.22;4987650;28;8964;-69
2023/07/30 05:56:21;;;;;;;;;1.00;1.00;;;;;18.09;64.29;100852.69;4984856;28;9593;-69
2023/07/30 05:58:48;;;;;;;;;0.50;0.00;;;;;18.15;64.80;100853.59;4990838;28;8931;-69
2023/07/30 06:01:14;;;;;;;;;1.00;0.50;;;;;18.18;64.68;100850.41;4989714;28;8878;-69
2023/07/30 06:03:41;;;;;;;;;0.50;0.50;;;;;18.21;64.93;100856.19;4989097;28;8834;-69
2023/07/30 06:06:07;;;;;;;;;0.00;0.00;;;;;18.22;65.02;100852.38;4992416;28;8860;-69
2023/07/30 06:08:34;;;;;;;;;0.50;0.50;;;;;18.19;65.31;100860.22;4985948;28;8849;-69
2023/07/30 06:11:03;;;;;;;;;0.00;0.00;;;;;18.17;65.48;100846.84;4984524;28;9546;-68
2023/07/30 06:13:29;;;;;;;;;0.00;0.00;;;;;18.20;65.80;100857.28;4984329;28;8844;-69
2023/07/30 06:15:56;;;;;;;;;1.00;1.00;;;;;18.20;66.35;100857.28;4992964;28;8932;-69
2023/07/30 06:18:23;;;;;;;;;1.00;0.00;;;;;18.23;66.93;100850.50;4993148;28;8892;-69
2023/07/30 06:20:49;;;;;;;;;1.50;1.00;;;;;18.22;67.33;100857.84;5004726;28;8864;-69
2023/07/30 06:23:15;;;;;;;;;2.50;1.00;;;;;18.21;68.36;100861.66;4989049;28;8917;-69
2023/07/30 06:25:42;;;;;;;;;2.25;2.00;;;;;18.16;69.89;100861.56;4989757;28;8841;-69
2023/07/30 06:28:08;;;;;;;;;5.00;4.25;;;;;18.15;70.60;100864.50;4989823;28;8853;-69
2023/07/30 06:30:36;;;;;;;;;2.00;2.00;;;;;18.09;72.06;100862.78;4982570;28;8852;-69
2023/07/30 06:33:03;;;;;;;;;6.00;4.00;;;;;18.06;72.54;100858.63;5001195;28;8854;-69
2023/07/30 06:35:29;;;;;;;;;4.25;4.00;;;;;18.05;72.91;100862.44;4992827;28;8907;-69
2023/07/30 06:37:55;;;;;;;;;3.25;2.50;;;;;18.06;73.47;100866.81;4987141;28;8826;-69
2023/07/30 06:40:23;;;;;;;;;2.00;2.00;;;;;18.06;73.69;100866.81;4989975;28;8851;-69
2023/07/30 06:42:49;;;;;;;;;2.00;1.75;;;;;18.08;74.16;100869.31;4988641;28;8835;-69
2023/07/30 06:45:16;;;;;;;;;4.50;2.50;;;;;18.06;74.23;100860.53;4987037;28;9008;-69
2023/07/30 06:47:42;;;;;;;;;1.25;0.75;;;;;18.04;74.20;100860.78;4987012;28;8829;-69
2023/07/30 06:50:09;;;;;;;;;6.75;5.00;;;;;17.93;75.19;100854.31;4989003;28;8896;-69
2023/07/30 06:52:36;;;;;;;;;3.75;2.75;;;;;17.90;75.72;100867.56;4990581;28;8870;-69
2023/07/30 06:55:03;;;;;;;;;4.25;3.00;;;;;17.90;75.92;100853.97;4985512;28;8935;-70
2023/07/30 06:57:30;;;;;;;;;5.25;4.25;;;;;17.87;76.04;100865.34;4989358;28;8845;-69
2023/07/30 06:59:57;;;;;;;;;2.50;2.00;;;;;17.79;76.51;100856.50;4987806;28;9542;-69
2023/07/30 07:02:24;;;;;;;;;4.25;3.00;;;;;17.80;77.08;100857.31;4988879;28;8859;-69
2023/07/30 07:04:51;;;;;;;;;2.75;1.50;;;;;17.84;77.17;100854.94;4985540;28;8823;-69
2023/07/30 07:07:17;;;;;;;;;4.00;3.00;;;;;17.86;77.51;100864.50;4986442;28;8830;-69
2023/07/30 07:09:44;;;;;;;;;2.25;2.25;;;;;17.83;78.01;100851.41;5003364;28;8877;-69
2023/07/30 07:12:10;;;;;;;;;3.75;2.00;;;;;17.76;78.47;100859.69;4988667;28;8916;-69
2023/07/30 07:14:37;;;;;;;;;2.25;2.25;;;;;17.73;78.92;100857.41;4986586;28;8883;-69
2023/07/30 07:17:03;;;;;;;;;7.25;4.00;;;;;17.73;79.19;100865.56;4989912;28;8880;-70
2023/07/30 07:19:31;;;;;;;;;4.25;2.00;;;;;17.69;79.56;100866.31;4992090;28;8834;-68
2023/07/30 07:21:57;;;;;;;;;6.00;2.25;;;;;17.70;80.24;100868.81;4986265;28;8875;-68
2023/07/30 07:24:24;;;;;;;;;2.75;2.25;;;;;17.71;80.23;100870.44;4984127;28;9551;-68
2023/07/30 07:26:50;;;;;;;;;3.75;2.50;;;;;17.69;80.49;100875.28;4989388;28;8858;-69
2023/07/30 07:29:17;;;;;;;;;3.00;3.00;;;;;17.69;80.34;100875.28;4986524;28;8838;-69
2023/07/30 07:31:45;;;;;;;;;6.00;3.00;;;;;17.62;80.33;100885.47;4989849;28;8864;-68
2023/07/30 07:34:11;;;;;;;;;3.75;3.75;;;;;17.60;80.55;100881.38;4987067;28;8918;-69
2023/07/30 07:36:38;;;;;;;;;2.25;2.00;;;;;17.66;80.96;100888.56;4985891;28;8861;-68
2023/07/30 07:39:04;;;;;;;;;2.75;1.50;;;;;17.70;80.88;100885.16;4975030;28;8868;-69
2023/07/30 07:41:31;;;;;;;;;6.00;2.75;;;;;17.73;80.35;100883.81;4990763;28;8936;-69
2023/07/30 07:43:57;;;;;;;;;3.50;3.00;;;;;17.69;80.89;100888.91;4987163;28;8834;-69
2023/07/30 07:46:26;;;;;;;;;2.50;2.50;;;;;17.75;80.67;100889.91;4989882;28;8864;-69
2023/07/30 07:48:52;;;;;;;;;1.75;1.75;;;;;17.81;81.00;100896.25;4990181;28;8916;-68
2023/07/30 07:51:19;;;;;;;;;3.50;2.75;;;;;17.82;80.39;100898.72;4986463;28;8852;-69
2023/07/30 07:53:46;;;;;;;;;1.50;1.50;;;;;17.77;80.41;100899.47;4983227;28;8861;-69
2023/07/30 07:56:12;;;;;;;;;1.00;0.00;;;;;17.70;79.67;100895.19;4988579;28;8880;-68
2023/07/30 07:58:39;;;;;;;;;1.00;1.00;;;;;17.66;79.40;100903.03;5005381;28;8841;-64
2023/07/30 08:01:05;;;;;;;;;2.00;1.00;;;;;17.77;79.58;100901.34;4987181;28;8830;-69
2023/07/30 08:03:32;;;;;;;;;1.00;1.00;;;;;17.79;78.51;100901.97;4988177;28;8831;-69
2023/07/30 08:05:58;;;;;;;;;2.00;2.00;;;;;17.78;78.31;100911.16;4987511;28;8864;-68
2023/07/30 08:08:26;;;;;;;;;4.00;1.50;;;;;17.74;77.89;100910.84;4968689;28;8915;-68
2023/07/30 08:10:53;;;;;;;;;2.75;1.75;;;;;17.68;77.98;100919.09;4987534;28;8855;-68
2023/07/30 08:13:20;;;;;;;;;2.00;1.00;;;;;17.67;77.73;100914.75;4991393;28;8984;-69
2023/07/30 08:15:46;;;;;;;;;1.00;1.00;;;;;17.64;76.98;100918.75;4989051;28;8846;-68
2023/07/30 08:18:13;;;;;;;;;2.00;2.00;;;;;17.64;77.27;100912.47;4990418;28;8843;-70
2023/07/30 08:20:39;;;;;;;;;3.25;2.75;;;;;17.67;77.07;100912.84;4986253;28;8892;-69
2023/07/30 08:23:06;;;;;;;;;1.25;1.00;;;;;17.70;76.77;100906.91;4995424;23;8940;-66
2023/07/30 08:25:32;;;;;;;;;0.50;0.50;;;;;17.67;76.12;100912.84;4973461;28;8960;-66
2023/07/30 08:27:59;;;;;;;;;2.50;1.00;;;;;17.66;76.60;100911.19;4984186;28;8845;-66
2023/07/30 08:30:25;;;;;;;;;2.00;1.75;;;;;17.61;76.21;100902.88;4990017;28;9623;-67
2023/07/30 08:32:52;;;;;;;;;1.00;1.00;;;;;17.61;76.25;100905.63;4989127;28;8834;-67
2023/07/30 08:35:18;;;;;;;;;3.00;2.00;;;;;17.59;76.24;100906.94;4987233;28;8840;-66
2023/07/30 08:37:45;;;;;;;;;2.00;1.00;;;;;17.56;76.18;100908.22;4989858;28;9568;-67
2023/07/30 08:40:12;;;;;;;;;0.50;0.50;;;;;17.58;76.41;100913.44;4991435;28;8830;-66
2023/07/30 08:42:41;;;;;;;;;0.00;0.00;;;;;17.65;76.72;100905.97;4987480;28;8858;-65
2023/07/30 08:45:08;;;;;;;;;1.00;1.00;;;;;17.70;75.95;100901.47;4971629;28;8879;-66
2023/07/30 08:47:35;;;;;;;;;3.75;2.25;;;;;17.81;75.98;100910.69;4988305;28;8851;-66
2023/07/30 08:50:02;;;;;;;;;1.00;1.00;;;;;17.89;75.79;100921.22;4984140;28;8827;-65
2023/07/30 08:52:29;;;;;;;;;1.00;1.00;;;;;17.95;75.54;100916.72;4989736;28;8847;-65
2023/07/30 08:55:01;;;;;;;;;3.00;2.00;;;;;17.94;75.45;100918.59;4977835;28;8864;-66
2023/07/30 08:57:30;;;;;;;;;2.00;2.00;;;;;17.91;75.74;100921.81;4973768;28;8995;-66
2023/07/30 09:00:03;;;;;;;;;1.00;1.00;;;;;17.90;75.57;100922.03;4987510;28;8956;-66
2023/07/30 09:02:37;;;;;;;;;3.00;1.25;;;;;17.87;75.57;100922.53;4968968;28;8825;-66
2023/07/30 09:05:04;;;;;;;;;1.75;1.50;;;;;17.87;75.53;100928.81;4972906;28;8834;-66
2023/07/30 09:07:31;;;;;;;;;4.25;2.75;;;;;17.85;75.56;100930.94;4990922;28;8865;-67
2023/07/30 09:09:58;;;;;;;;;3.25;1.75;;;;;17.83;75.60;100934.97;4984834;28;8858;-68
2023/07/30 09:12:32;;;;;;;;;1.00;1.00;;;;;17.85;75.15;100927.38;4989992;28;8849;-67
2023/07/30 09:14:58;;;;;;;;;1.00;1.00;;;;;17.90;75.02;100935.66;4991303;28;8904;-66
2023/07/30 09:17:25;;;;;;;;;2.25;2.00;;;;;17.92;75.00;100941.72;4987173;28;9580;-67
2023/07/30 09:19:53;;;;;;;;;4.00;2.50;;;;;17.95;74.75;100941.22;4988138;28;8862;-66
2023/07/30 09:22:24;;;;;;;;;1.75;1.75;;;;;17.98;74.81;100936.09;4973385;28;8876;-66
2023/07/30 09:24:50;;;;;;;;;2.00;2.00;;;;;17.97;74.39;100944.53;4990401;28;8837;-66
2023/07/30 09:27:23;;;;;;;;;1.00;1.00;;;;;17.94;74.66;100945.00;4981661;28;8918;-65
2023/07/30 09:29:55;;;;;;;;;1.25;1.25;;;;;17.85;74.43;100938.28;4974734;28;8876;-67
2023/07/30 09:32:27;;;;;;;;;2.50;1.00;;;;;17.81;74.84;100948.00;4985502;28;8970;-67
2023/07/30 09:34:54;;;;;;;;;2.00;1.00;;;;;17.84;74.57;100952.97;4985707;28;9575;-66
2023/07/30 09:37:21;;;;;;;;;2.25;2.25;;;;;17.90;74.34;100952.00;4972117;28;8844;-66
2023/07/30 09:39:48;;;;;;;;;1.00;1.00;;;;;17.98;74.41;100951.63;4990573;28;9578;-67
2023/07/30 09:42:15;;;;;;;;;1.00;1.00;;;;;18.03;74.34;100959.94;4963392;28;8871;-65
2023/07/30 09:44:41;;;;;;;;;4.75;3.00;;;;;18.01;73.91;100962.88;4989760;28;8879;-65
2023/07/30 09:47:11;;;;;;;;;2.00;2.00;;;;;18.18;73.91;100962.13;4970067;28;8839;-67
2023/07/30 09:49:38;;;;;;;;;1.25;1.25;;;;;18.33;74.12;100959.69;4990493;28;8911;-66
2023/07/30 09:52:05;;;;;;;;;1.00;1.00;;;;;18.33;71.61;100965.16;4989618;28;8833;-66
2023/07/30 09:54:32;;;;;;;;;2.00;2.00;;;;;18.32;70.77;100971.69;4990868;28;8842;-66
2023/07/30 09:56:59;;;;;;;;;2.25;2.00;;;;;18.38;70.97;100978.88;4971960;28;8865;-66
2023/07/30 09:59:25;;;;;;;;;6.00;1.00;;;;;18.35;69.71;100981.25;4990766;28;8837;-66
2023/07/30 10:01:55;;;;;;;;;1.50;1.50;;;;;18.30;69.36;100973.81;4988753;28;8873;-67
2023/07/30 10:04:23;;;;;;;;;2.75;1.25;;;;;18.38;68.90;100984.31;4995905;28;8849;-67
2023/07/30 10:07:01;;;;;;;;;2.00;1.00;;;;;18.48;68.27;100992.72;4990314;28;8822;-67
2023/07/30 10:09:32;;;;;;;;;0.75;0.75;;;;;18.53;67.39;100987.34;4975481;28;8848;-66
2023/07/30 10:12:00;;;;;;;;;0.50;0.50;;;;;18.57;67.03;100987.69;4987955;28;8817;-67
2023/07/30 10:14:28;;;;;;;;;0.00;0.00;;;;;18.57;67.03;100984.13;4973437;28;8853;-67
2023/07/30 10:16:56;;;;;;;;;0.25;0.25;;;;;18.60;66.44;100978.22;4985683;28;8890;-68
2023/07/30 10:19:27;;;;;;;;;1.00;0.75;;;;;18.62;66.38;100982.31;4994311;28;8815;-68
2023/07/30 10:22:12;;;;;;;;;1.00;1.00;;;;;18.54;66.39;100988.16;4977925;28;8896;-67
2023/07/30 10:24:39;;;;;;;;;1.25;1.00;;;;;18.51;66.55;100991.38;4972504;28;8877;-68
2023/07/30 10:27:09;;;;;;;;;5.00;1.00;;;;;18.53;66.73;100991.97;4986843;28;8833;-68
2023/07/30 10:29:41;;;;;;;;;0.75;0.75;;;;;18.56;66.63;100994.22;4978978;28;8952;-66
2023/07/30 10:32:08;;;;;;;;;2.25;1.00;;;;;18.63;65.77;100988.59;4988733;28;8837;-66
2023/07/30 10:34:46;;;;;;;;;1.50;1.50;;;;;18.70;65.71;100997.50;4983097;28;8821;-67
2023/07/30 10:37:21;;;;;;;;;1.00;1.00;;;;;18.73;65.60;100991.56;4989464;28;8857;-68
2023/07/30 10:39:50;;;;;;;;;3.75;2.00;;;;;18.85;66.11;100991.50;4980959;28;8992;-66
2023/07/30 10:42:18;;;;;;;;;1.50;1.50;;;;;18.88;66.01;101002.75;4981958;28;8837;-68
2023/07/30 10:44:45;;;;;;;;;5.25;2.00;;;;;18.92;65.49;101003.06;4989563;28;8841;-67
2023/07/30 10:47:12;;;;;;;;;1.00;1.00;;;;;18.90;65.16;101003.31;4974284;28;9439;-68
2023/07/30 10:50:01;;;;;;;;;1.00;1.00;;;;;18.98;65.16;101007.56;4973622;28;8871;-67
2023/07/30 10:52:28;;;;;;;;;1.50;1.00;;;;;18.96;65.33;101010.53;4985361;28;8857;-69
2023/07/30 10:55:01;;;;;;;;;2.00;1.50;;;;;18.96;65.53;101013.28;4992689;28;8834;-66
2023/07/30 10:57:34;;;;;;;;;1.50;1.00;;;;;18.93;64.95;101005.56;4973620;28;8980;-67
2023/07/30 11:00:00;;;;;;;;;0.00;0.00;;;;;19.00;64.86;101021.78;4986687;28;8842;-68
2023/07/30 11:02:29;;;;;;;;;1.25;1.00;;;;;18.98;64.47;101013.84;4984700;28;8829;-68
2023/07/30 11:04:56;;;;;;;;;2.00;1.00;;;;;19.01;64.03;101007.91;4989169;28;8845;-67
2023/07/30 11:07:22;;;;;;;;;1.00;1.00;;;;;18.94;64.26;101009.94;4970304;28;8843;-67
2023/07/30 11:10:00;;;;;;;;;1.50;1.00;;;;;19.04;64.59;101009.31;4986367;28;8976;-67
2023/07/30 11:12:26;;;;;;;;;0.00;0.00;;;;;19.04;64.09;101006.59;4968239;28;8843;-67
2023/07/30 11:15:00;;;;;;;;;2.00;1.00;;;;;19.14;64.36;101006.75;4992086;28;8854;-67
2023/07/30 11:17:27;;;;;;;;;0.75;0.75;;;;;19.25;64.05;101008.56;4975962;28;8892;-68
2023/07/30 11:19:55;;;;;;;;;3.00;1.00;;;;;19.25;63.36;101013.22;4971505;28;8835;-67
2023/07/30 11:22:32;;;;;;;;;0.50;0.50;;;;;19.32;63.70;101013.03;4967033;28;8999;-69
2023/07/30 11:24:58;;;;;;;;;1.75;1.75;;;;;19.34;63.14;101027.28;4963124;28;8861;-68
2023/07/30 11:27:25;;;;;;;;;2.75;1.50;;;;;19.42;62.96;101030.41;4963904;28;8876;-69
2023/07/30 11:29:56;;;;;;;;;1.25;0.25;;;;;19.40;62.66;101026.25;4969520;28;8844;-69
2023/07/30 11:32:25;;;;;;;;;0.00;0.00;;;;;19.53;62.63;101020.50;4987553;28;8875;-68
2023/07/30 11:34:53;;;;;;;;;1.25;1.00;;;;;19.60;62.92;101026.59;4975171;28;8840;-68